Time;durP1;ratioP1;P1;durP2;ratioP2;P2;SDS_P1;SDS_P2;PMS_P1;PMS_P2;Temp;Humidity;BMP_temperature;BMP_pressure;BME280_temperature;BME280_humidity;BME280_pressure;Samples;Min_cycle;Max_cycle;Signal;HPM_P1;HPM_P2
2023/08/05 00:02:00;;;;;;;3.90;2.75;;;;;;;14.63;100.00;100712.09;7714089;23;20393;-96
2023/08/05 00:05:03;;;;;;;4.45;2.40;;;;;;;14.61;100.00;100709.63;7741549;23;20023;-96
2023/08/05 00:08:06;;;;;;;5.45;2.75;;;;;;;14.56;100.00;100701.44;7739374;23;20134;-96
2023/08/05 00:11:08;;;;;;;6.13;2.55;;;;;;;14.50;100.00;100706.34;7738306;23;20085;-96
2023/08/05 00:14:10;;;;;;;3.95;2.60;;;;;;;14.48;100.00;100705.66;7738083;23;20469;-96
2023/08/05 00:17:13;;;;;;;3.13;2.63;;;;;;;14.49;100.00;100718.56;7712398;23;20765;-96
2023/08/05 00:20:15;;;;;;;5.63;2.75;;;;;;;14.46;100.00;100712.78;7738657;23;20743;-96
2023/08/05 00:23:17;;;;;;;6.88;2.90;;;;;;;14.47;100.00;100701.44;7740735;23;20020;-96
2023/08/05 00:26:19;;;;;;;5.25;2.42;;;;;;;14.50;100.00;100706.34;7740557;23;20066;-96
2023/08/05 00:29:21;;;;;;;4.60;2.53;;;;;;;14.54;100.00;100708.56;7740679;23;20016;-96
2023/08/05 00:32:23;;;;;;;4.57;2.50;;;;;;;14.55;100.00;100706.78;7713376;23;20027;-96
2023/08/05 00:35:26;;;;;;;5.03;2.80;;;;;;;14.48;100.00;100703.88;7712274;23;20020;-96
2023/08/05 00:38:28;;;;;;;4.18;2.72;;;;;;;14.38;100.00;100711.75;7713296;23;20603;-96
2023/08/05 00:41:30;;;;;;;5.50;2.63;;;;;;;14.40;100.00;100720.22;7738460;23;20501;-96
2023/08/05 00:44:33;;;;;;;4.60;2.90;;;;;;;14.41;100.00;100716.66;7739047;23;20106;-96
2023/08/05 00:47:35;;;;;;;5.85;2.80;;;;;;;14.33;100.00;100726.94;7713535;23;20709;-96
2023/08/05 00:50:38;;;;;;;8.07;3.15;;;;;;;14.34;100.00;100722.59;7713620;23;20035;-96
2023/08/05 00:53:41;;;;;;;7.32;3.70;;;;;;;14.30;100.00;100719.41;7739562;23;20023;-96
2023/08/05 00:56:45;;;;;;;5.03;2.80;;;;;;;14.27;100.00;100713.69;7739591;23;20020;-96
2023/08/05 00:59:48;;;;;;;5.07;3.40;;;;;;;14.19;100.00;100712.59;7739797;23;20012;-96
2023/08/05 01:02:51;;;;;;;3.65;3.05;;;;;;;14.21;100.00;100709.88;7711101;23;20335;-96
2023/08/05 01:05:54;;;;;;;6.72;3.33;;;;;;;14.17;100.00;100709.31;7737859;23;20028;-96
2023/08/05 01:08:57;;;;;;;3.50;3.20;;;;;;;14.16;100.00;100712.03;7712721;23;20134;-96
2023/08/05 01:11:59;;;;;;;3.53;3.15;;;;;;;14.08;100.00;100704.94;7739833;23;20461;-96
2023/08/05 01:15:02;;;;;;;5.35;3.35;;;;;;;14.04;100.00;100702.78;7740909;22;20442;-96
2023/08/05 01:18:05;;;;;;;8.45;3.40;;;;;;;14.02;100.00;100717.69;7712917;23;20027;-96
2023/08/05 01:21:16;;;;;;;8.95;3.72;;;;;;;14.03;100.00;100711.53;7740249;23;20020;-96
2023/08/05 01:24:31;;;;;;;5.47;3.38;;;;;;;13.99;100.00;100711.81;7739988;23;20449;-96
2023/08/05 01:27:34;;;;;;;4.82;2.92;;;;;;;13.99;100.00;100706.59;7740407;23;20047;-96
2023/08/05 01:30:37;;;;;;;7.13;3.10;;;;;;;13.92;100.00;100709.91;7738911;23;20012;-96
2023/08/05 01:33:40;;;;;;;3.08;2.78;;;;;;;13.89;100.00;100704.97;7736512;23;20026;-96
2023/08/05 01:36:42;;;;;;;5.15;3.10;;;;;;;13.82;100.00;100712.50;7712370;23;20742;-96
2023/08/05 01:39:45;;;;;;;4.95;3.05;;;;;;;13.78;100.00;100709.34;7740418;23;20015;-96
2023/08/05 01:42:47;;;;;;;6.47;3.55;;;;;;;13.70;100.00;100719.63;7737897;23;20028;-96
2023/08/05 01:45:50;;;;;;;6.22;3.42;;;;;;;13.65;100.00;100721.00;7737669;23;20446;-96
2023/08/05 01:48:53;;;;;;;4.97;3.55;;;;;;;13.56;100.00;100720.00;7737490;23;20544;-96
2023/08/05 01:51:56;;;;;;;6.18;3.60;;;;;;;13.54;100.00;100722.78;7739872;23;20020;-96
2023/08/05 01:54:58;;;;;;;3.90;3.50;;;;;;;13.48;100.00;100727.69;7740420;23;20031;-96
2023/08/05 01:58:00;;;;;;;6.88;3.30;;;;;;;13.46;100.00;100724.38;7739064;23;20024;-96
2023/08/05 02:01:03;;;;;;;7.25;3.70;;;;;;;13.42;100.00;100739.44;7738957;23;20099;-96
2023/08/05 02:04:05;;;;;;;5.65;3.60;;;;;;;13.43;100.00;100740.25;7736760;23;20861;-96
2023/08/05 02:07:07;;;;;;;3.80;3.20;;;;;;;13.38;100.00;100738.06;7736438;23;20898;-96
2023/08/05 02:10:10;;;;;;;5.15;3.10;;;;;;;13.33;100.00;100737.66;7736826;23;20016;-96
2023/08/05 02:13:12;;;;;;;3.60;3.22;;;;;;;13.35;100.00;100740.94;7714973;23;20016;-96
2023/08/05 02:16:14;;;;;;;3.72;3.03;;;;;;;13.34;100.00;100745.31;7743749;23;20016;-96
2023/08/05 02:19:16;;;;;;;4.30;3.50;;;;;;;13.30;100.00;100750.91;7738187;23;20095;-96
2023/08/05 02:22:19;;;;;;;5.28;3.67;;;;;;;13.25;100.00;100753.88;7713237;23;20028;-96
2023/08/05 02:25:22;;;;;;;5.82;3.38;;;;;;;13.24;100.00;100747.06;7738554;23;20020;-96
2023/08/05 02:28:27;;;;;;;5.88;3.25;;;;;;;13.25;100.00;100745.25;7713888;23;20027;-96
2023/08/05 02:31:29;;;;;;;5.00;3.45;;;;;;;13.26;100.00;100752.09;7738284;23;20020;-96
2023/08/05 02:34:32;;;;;;;4.05;3.08;;;;;;;13.29;100.00;100744.91;7711815;23;20559;-96
2023/08/05 02:37:34;;;;;;;5.35;3.75;;;;;;;13.38;100.00;100738.06;7737075;23;20402;-96
2023/08/05 02:40:38;;;;;;;6.68;3.47;;;;;;;13.44;100.00;100741.91;7737045;23;20019;-96
2023/08/05 02:43:40;;;;;;;4.95;3.40;;;;;;;13.52;100.00;100745.47;7721737;23;20343;-96
2023/08/05 02:46:42;;;;;;;4.60;3.28;;;;;;;13.66;100.00;100740.84;7741352;23;20440;-96
2023/08/05 02:49:45;;;;;;;7.93;3.38;;;;;;;13.72;100.00;100738.53;7736769;23;20027;-96
2023/08/05 02:52:47;;;;;;;4.18;3.22;;;;;;;13.73;100.00;100724.53;7737260;23;20027;-96
2023/08/05 02:55:50;;;;;;;4.70;2.70;;;;;;;13.73;100.00;100721.13;7737561;23;20024;-96
2023/08/05 02:58:52;;;;;;;4.28;2.72;;;;;;;13.73;100.00;100726.31;7738906;23;20019;-96
2023/08/05 03:01:54;;;;;;;7.38;3.03;;;;;;;13.74;100.00;100721.00;7738575;23;20043;-96
2023/08/05 03:04:56;;;;;;;3.85;2.88;;;;;;;13.76;100.00;100719.09;7748216;22;20011;-96
2023/08/05 03:07:59;;;;;;;5.38;2.78;;;;;;;13.79;100.00;100720.59;7748024;23;20024;-96
2023/08/05 03:11:02;;;;;;;4.75;3.85;;;;;;;13.84;100.00;100723.59;7743918;23;20020;-96
2023/08/05 03:14:06;;;;;;;5.03;4.00;;;;;;;13.88;100.00;100714.53;7714970;23;20020;-96
2023/08/05 03:17:09;;;;;;;8.38;3.95;;;;;;;13.84;100.00;100709.75;7741413;23;20024;-96
2023/08/05 03:20:30;;;;;;;6.63;3.65;;;;;;;13.74;100.00;100704.56;7714153;23;20457;-96
2023/08/05 03:23:39;;;;;;;5.30;3.53;;;;;;;13.64;100.00;100701.13;7740835;23;20099;-96
2023/08/05 03:26:42;;;;;;;6.15;3.85;;;;;;;13.52;100.00;100698.66;7739122;23;20019;-96
2023/08/05 03:29:47;;;;;;;7.57;3.78;;;;;;;13.50;100.00;100716.19;7737459;23;20032;-96
2023/08/05 03:32:49;;;;;;;4.30;3.58;;;;;;;13.62;100.00;100719.50;7713619;23;20091;-96
2023/08/05 03:35:54;;;;;;;5.78;3.70;;;;;;;13.73;100.00;100716.72;7739389;23;20031;-96
2023/08/05 03:39:00;;;;;;;6.32;3.80;;;;;;;13.78;100.00;100716.34;7715211;23;20035;-96
2023/08/05 03:42:03;;;;;;;5.82;3.00;;;;;;;13.79;100.00;100716.22;7741596;23;20020;-96
2023/08/05 03:45:06;;;;;;;4.93;3.70;;;;;;;13.73;100.00;100723.72;7739279;23;20023;-96
2023/08/05 03:48:10;;;;;;;4.47;3.70;;;;;;;13.70;100.00;100718.81;7740653;23;20043;-96
2023/08/05 03:51:12;;;;;;;5.93;3.90;;;;;;;13.68;100.00;100702.50;7739921;23;20039;-96
2023/08/05 03:54:14;;;;;;;4.65;3.50;;;;;;;13.66;100.00;100714.81;7713137;23;20016;-96
2023/08/05 03:57:16;;;;;;;5.07;3.17;;;;;;;13.71;100.00;100708.28;7739903;23;20024;-96
2023/08/05 04:00:19;;;;;;;5.65;4.22;;;;;;;13.76;100.00;100703.47;7738323;23;20028;-96
2023/08/05 04:03:22;;;;;;;7.60;4.32;;;;;;;13.83;100.00;100706.31;7737537;23;20074;-96
2023/08/05 04:06:25;;;;;;;4.95;3.70;;;;;;;13.89;100.00;100711.00;7714465;23;20024;-96
2023/08/05 04:09:28;;;;;;;5.55;3.70;;;;;;;13.98;100.00;100704.94;7712986;23;20024;-96
2023/08/05 04:12:33;;;;;;;5.68;3.85;;;;;;;14.07;100.00;100705.91;7739893;23;20023;-96
2023/08/05 04:15:36;;;;;;;8.43;3.63;;;;;;;14.15;100.00;100708.63;7713201;23;20792;-96
2023/08/05 04:18:40;;;;;;;6.85;3.70;;;;;;;14.19;100.00;100706.56;7740354;23;20098;-96
2023/08/05 04:21:47;;;;;;;10.07;3.83;;;;;;;14.27;100.00;100700.66;7740994;23;20016;-96
2023/08/05 04:24:51;;;;;;;7.43;4.13;;;;;;;14.28;100.00;100710.91;7738602;23;20529;-96
2023/08/05 04:27:53;;;;;;;5.65;3.85;;;;;;;14.28;100.00;100707.50;7738113;23;20553;-96
2023/08/05 04:30:57;;;;;;;8.75;4.13;;;;;;;14.15;100.00;100711.22;7739117;23;20059;-96
2023/08/05 04:33:59;;;;;;;6.97;3.58;;;;;;;14.07;100.00;100705.09;7737523;23;20020;-96
2023/08/05 04:37:19;;;;;;;9.35;4.20;;;;;;;14.08;100.00;100704.13;7740472;23;20039;-96
2023/08/05 04:40:21;;;;;;;8.05;4.18;;;;;;;14.08;100.00;100699.72;7738857;23;20446;-96
2023/08/05 04:43:26;;;;;;;6.97;3.97;;;;;;;14.20;100.00;100706.41;7738909;23;20020;-96
2023/08/05 04:46:31;;;;;;;7.10;4.22;;;;;;;14.31;100.00;100699.41;7739298;23;20741;-96
2023/08/05 04:49:38;;;;;;;7.18;4.32;;;;;;;14.44;100.00;100698.13;7738827;23;20024;-96
2023/08/05 04:52:41;;;;;;;5.93;3.80;;;;;;;14.53;100.00;100693.03;7740720;23;20020;-96
2023/08/05 04:55:44;;;;;;;12.35;3.88;;;;;;;14.64;100.00;100687.69;7738850;23;20061;-96
2023/08/05 04:58:47;;;;;;;6.97;4.20;;;;;;;14.69;100.00;100695.88;7739194;23;20265;-96
2023/08/05 05:01:52;;;;;;;7.63;4.70;;;;;;;14.75;100.00;100694.50;7738217;23;20023;-96
2023/08/05 05:04:54;;;;;;;6.88;4.50;;;;;;;14.81;100.00;100706.97;7739028;23;20043;-96
2023/08/05 05:08:02;;;;;;;8.60;4.93;;;;;;;14.92;100.00;100713.75;7714775;23;20436;-96
2023/08/05 05:11:04;;;;;;;8.60;4.78;;;;;;;14.99;100.00;100710.41;7740057;22;20012;-96
2023/08/05 05:14:07;;;;;;;7.82;4.57;;;;;;;15.10;100.00;100714.59;7737002;23;20366;-96
2023/08/05 05:17:10;;;;;;;9.15;5.30;;;;;;;15.17;100.00;100707.84;7740081;23;20031;-96
2023/08/05 05:20:12;;;;;;;8.48;4.25;;;;;;;15.27;100.00;100703.38;7737969;23;20324;-96
2023/08/05 05:23:14;;;;;;;4.75;3.40;;;;;;;15.35;100.00;100696.63;7738251;23;20106;-96
2023/08/05 05:26:17;;;;;;;6.20;4.70;;;;;;;15.47;100.00;100690.22;7737668;23;20027;-96
2023/08/05 05:29:21;;;;;;;7.28;3.30;;;;;;;15.53;100.00;100697.47;7763791;22;20032;-96
2023/08/05 05:32:27;;;;;;;6.07;3.40;;;;;;;15.59;100.00;100696.03;7739213;23;20087;-96
2023/08/05 05:35:29;;;;;;;5.32;3.70;;;;;;;15.61;100.00;100681.06;7737795;23;20145;-96
2023/08/05 05:38:32;;;;;;;6.15;3.20;;;;;;;15.61;100.00;100683.66;7738367;23;20024;-96
2023/08/05 05:41:34;;;;;;;5.10;3.40;;;;;;;15.62;100.00;100685.28;7739583;23;20354;-96
2023/08/05 05:44:38;;;;;;;5.85;3.55;;;;;;;15.62;100.00;100687.91;7738448;23;20026;-96
2023/08/05 05:47:40;;;;;;;7.63;4.65;;;;;;;15.69;100.00;100696.78;7737925;23;20023;-96
2023/08/05 05:50:43;;;;;;;9.15;4.68;;;;;;;15.74;100.00;100699.78;7738464;23;20091;-96
2023/08/05 05:53:45;;;;;;;6.18;4.63;;;;;;;15.81;100.00;100705.22;7735848;23;20020;-96
2023/08/05 05:56:46;;;;;;;6.20;4.20;;;;;;;15.90;100.00;100701.72;7740262;23;20021;-96
2023/08/05 05:59:49;;;;;;;6.97;3.60;;;;;;;15.92;100.00;100712.81;7712517;23;20093;-96
2023/08/05 06:02:50;;;;;;;5.60;4.55;;;;;;;15.98;100.00;100708.78;7738306;23;20389;-96
2023/08/05 06:05:53;;;;;;;5.95;4.30;;;;;;;15.97;100.00;100707.94;7737882;23;20023;-96
2023/08/05 06:08:55;;;;;;;5.68;3.78;;;;;;;15.93;100.00;100699.63;7740472;22;20040;-96
2023/08/05 06:11:58;;;;;;;8.18;4.93;;;;;;;15.79;100.00;100697.53;7712962;23;20051;-96
2023/08/05 06:15:01;;;;;;;9.75;4.53;;;;;;;15.73;100.00;100698.16;7737676;23;20122;-96
2023/08/05 06:18:03;;;;;;;8.05;4.63;;;;;;;15.76;100.00;100695.22;7736531;23;20024;-96
2023/08/05 06:21:05;;;;;;;7.82;4.80;;;;;;;15.93;100.00;100697.00;7739393;23;20026;-96
2023/08/05 06:24:07;;;;;;;9.50;4.47;;;;;;;16.12;100.00;100693.38;7712770;23;20028;-96
2023/08/05 06:27:09;;;;;;;6.60;4.43;;;;;;;16.37;100.00;100690.91;7737300;23;20366;-96
2023/08/05 06:30:12;;;;;;;9.13;4.25;;;;;;;16.57;100.00;100676.66;7739908;23;20016;-96
2023/08/05 06:33:14;;;;;;;7.63;4.78;;;;;;;16.73;100.00;100664.63;7736540;23;20328;-96
2023/08/05 06:36:17;;;;;;;5.40;4.25;;;;;;;16.75;100.00;100660.06;7737285;23;20024;-96
2023/08/05 06:39:19;;;;;;;6.72;4.68;;;;;;;16.64;100.00;100655.91;7738820;22;20462;-96
2023/08/05 06:42:23;;;;;;;6.65;5.00;;;;;;;16.44;100.00;100657.97;7737536;23;20020;-96
2023/08/05 06:45:26;;;;;;;7.20;4.35;;;;;;;16.23;100.00;100660.97;7738041;23;20099;-96
2023/08/05 06:48:28;;;;;;;8.25;4.55;;;;;;;16.12;100.00;100661.22;7738316;23;20020;-96
2023/08/05 06:51:32;;;;;;;7.15;4.30;;;;;;;16.07;100.00;100661.69;7736763;23;20031;-96
2023/08/05 06:54:34;;;;;;;5.43;3.60;;;;;;;16.08;100.00;100660.72;7736681;23;20020;-96
2023/08/05 06:57:36;;;;;;;6.75;3.88;;;;;;;16.09;100.00;100664.94;7735816;23;20024;-96
2023/08/05 07:00:38;;;;;;;5.10;3.00;;;;;;;16.13;100.00;100661.06;7738452;23;20095;-96
2023/08/05 07:03:41;;;;;;;10.00;3.30;;;;;;;16.19;100.00;100658.81;7738553;23;20031;-96
2023/08/05 07:06:44;;;;;;;9.50;3.35;;;;;;;16.37;100.00;100659.56;7737143;23;20016;-96
2023/08/05 07:09:46;;;;;;;7.15;3.72;;;;;;;16.62;100.00;100649.22;7739005;23;20091;-96
2023/08/05 07:12:48;;;;;;;4.68;3.20;;;;;;;16.98;100.00;100642.81;7738810;23;20315;-96
2023/08/05 07:15:51;;;;;;;5.80;2.80;;;;;;;17.42;100.00;100624.25;7738701;23;20031;-96
2023/08/05 07:18:53;;;;;;;6.10;3.10;;;;;;;17.94;100.00;100614.44;7736266;23;20024;-96
2023/08/05 07:21:55;;;;;;;3.90;2.35;;;;;;;18.44;100.00;100605.41;7712771;23;20754;-96
2023/08/05 07:24:57;;;;;;;3.88;2.70;;;;;;;18.68;100.00;100592.19;7713722;23;20024;-96
2023/08/05 07:28:00;;;;;;;8.07;2.38;;;;;;;18.78;100.00;100584.13;7740154;23;20024;-96
2023/08/05 07:31:05;;;;;;;5.05;2.33;;;;;;;18.88;100.00;100581.25;7738697;23;20031;-96
2023/08/05 07:34:09;;;;;;;6.22;2.72;;;;;;;18.89;100.00;100585.53;7741577;22;20596;-96
2023/08/05 07:37:14;;;;;;;7.68;2.40;;;;;;;18.94;100.00;100585.81;7713238;23;20099;-96
2023/08/05 07:40:17;;;;;;;4.20;2.13;;;;;;;19.04;100.00;100578.53;7739716;23;20016;-96
2023/08/05 07:43:21;;;;;;;6.28;2.22;;;;;;;19.05;100.00;100584.59;7740725;23;20023;-96
2023/08/05 07:46:25;;;;;;;4.35;1.95;;;;;;;19.14;100.00;100581.75;7717303;23;20020;-96
2023/08/05 07:49:31;;;;;;;4.10;2.22;;;;;;;19.25;100.00;100574.44;7740802;23;20024;-96
2023/08/05 07:52:34;;;;;;;6.43;2.22;;;;;;;19.30;100.00;100558.97;7741440;23;20095;-96
2023/08/05 07:55:41;;;;;;;3.90;2.13;;;;;;;19.22;100.00;100556.44;7715685;23;20041;-96
2023/08/05 07:58:47;;;;;;;4.78;2.22;;;;;;;19.04;100.00;100554.94;7744817;22;20019;-96
2023/08/05 08:01:49;;;;;;;6.97;2.90;;;;;;;18.97;100.00;100551.38;7718463;23;20016;-96
2023/08/05 08:04:54;;;;;;;5.68;2.35;;;;;;;19.04;100.00;100549.69;7719791;23;20027;-96
2023/08/05 08:07:57;;;;;;;4.68;2.20;;;;;;;19.07;100.00;100543.25;7743950;23;20020;-96
2023/08/05 08:10:59;;;;;;;3.65;2.22;;;;;;;19.00;100.00;100540.50;7746689;23;20019;-96
2023/08/05 08:14:03;;;;;;;7.07;2.30;;;;;;;18.83;100.00;100539.84;7744237;23;20040;-96
2023/08/05 08:17:05;;;;;;;4.03;2.33;;;;;;;18.62;100.00;100542.25;7744527;23;20031;-96
2023/08/05 08:20:11;;;;;;;5.70;2.10;;;;;;;18.47;100.00;100544.78;7721831;23;20022;-96
2023/08/05 08:23:17;;;;;;;5.20;2.45;;;;;;;18.32;100.00;100533.41;7746794;22;20012;-96
2023/08/05 08:26:20;;;;;;;3.85;2.25;;;;;;;18.25;100.00;100536.69;7746952;23;20023;-96
2023/08/05 08:29:22;;;;;;;7.30;2.45;;;;;;;18.13;100.00;100545.09;7745599;23;20027;-96
2023/08/05 08:32:28;;;;;;;6.70;2.22;;;;;;;18.21;100.00;100540.66;7747448;23;20020;-96
2023/08/05 08:35:35;;;;;;;4.18;2.15;;;;;;;18.26;100.00;100527.84;7746937;22;20063;-96
2023/08/05 08:38:38;;;;;;;6.10;2.45;;;;;;;18.33;100.00;100530.59;7748389;23;20023;-96
2023/08/05 08:41:44;;;;;;;2.83;2.40;;;;;;;18.43;100.00;100519.88;7744916;23;20024;-96
2023/08/05 08:44:47;;;;;;;6.05;2.58;;;;;;;18.70;100.00;100511.53;7741744;23;20732;-96
2023/08/05 08:47:49;;;;;;;3.85;2.30;;;;;;;18.83;100.00;100518.03;7742373;23;20024;-96
2023/08/05 08:50:53;;;;;;;5.47;2.30;;;;;;;19.00;100.00;100514.28;7740310;23;20020;-96
2023/08/05 08:53:56;;;;;;;4.70;2.42;;;;;;;19.21;100.00;100505.75;7742216;23;20020;-96
2023/08/05 08:56:59;;;;;;;3.25;2.05;;;;;;;19.47;100.00;100500.06;7740271;23;20533;-96
2023/08/05 09:00:01;;;;;;;4.35;2.10;;;;;;;19.60;100.00;100488.94;7740309;23;20028;-96
2023/08/05 09:03:05;;;;;;;3.95;2.35;;;;;;;19.54;100.00;100485.22;7741871;22;20016;-96
2023/08/05 09:06:08;;;;;;;2.28;2.00;;;;;;;19.49;100.00;100484.16;7742521;23;20015;-96
2023/08/05 09:09:11;;;;;;;4.90;2.08;;;;;;;19.67;100.00;100484.63;7741611;23;20016;-96
2023/08/05 09:12:17;;;;;;;5.45;2.03;;;;;;;19.95;100.00;100482.16;7738841;23;20502;-96
2023/08/05 09:15:21;;;;;;;4.15;2.10;;;;;;;20.11;100.00;100475.06;7740149;23;20036;-96
2023/08/05 09:18:26;;;;;;;3.75;1.90;;;;;;;19.94;100.00;100466.56;7753900;23;20318;-96
2023/08/05 09:21:29;;;;;;;5.40;2.00;;;;;;;19.56;100.00;100467.50;7744177;23;20038;-96
2023/08/05 09:24:37;;;;;;;3.90;2.10;;;;;;;19.24;100.00;100473.91;7763988;23;20016;-96
2023/08/05 09:27:47;;;;;;;4.43;2.30;;;;;;;19.01;100.00;100467.91;7737766;23;20020;-97
2023/08/05 09:31:15;;;;;;;6.00;2.00;;;;;;;18.77;100.00;100461.03;7764068;23;20581;-96
2023/08/05 09:34:19;;;;;;;3.88;1.70;;;;;;;18.75;100.00;100455.94;7767501;22;20019;-96
2023/08/05 09:37:22;;;;;;;6.80;2.25;;;;;;;18.88;100.00;100464.06;7734062;23;20016;-96
2023/08/05 09:40:33;;;;;;;2.22;2.05;;;;;;;19.21;100.00;100457.72;7730953;23;20020;-96
2023/08/05 09:43:40;;;;;;;2.80;1.90;;;;;;;19.74;100.00;100445.31;7747788;23;20023;-96
2023/08/05 09:46:45;;;;;;;4.30;1.92;;;;;;;20.54;100.00;100448.81;7738683;23;20038;-96
2023/08/05 09:49:52;;;;;;;3.15;1.67;;;;;;;21.35;100.00;100443.19;7744415;23;20522;-96
2023/08/05 09:52:57;;;;;;;3.20;1.50;;;;;;;21.99;100.00;100434.97;7747693;22;20064;-96
2023/08/05 09:56:06;;;;;;;4.22;1.73;;;;;;;22.41;100.00;100435.72;7748620;23;20020;-96
2023/08/05 09:59:12;;;;;;;2.05;1.30;;;;;;;22.68;100.00;100428.63;7721951;23;20028;-96
2023/08/05 10:02:22;;;;;;;2.38;1.58;;;;;;;22.72;100.00;100421.91;7722925;23;20458;-97
2023/08/05 10:05:26;;;;;;;;;;;;;;;22.82;100.00;100424.13;7745926;23;20016;-96
2023/08/05 10:08:30;;;;;;;3.05;1.60;;;;;;;22.74;100.00;100419.06;7746859;23;19919;-96
2023/08/05 10:11:35;;;;;;;1.95;1.52;;;;;;;22.98;100.00;100415.84;7740256;23;20669;-96
2023/08/05 10:14:37;;;;;;;2.28;1.40;;;;;;;23.40;100.00;100412.88;7740764;23;20023;-96
2023/08/05 10:17:46;;;;;;;3.22;1.85;;;;;;;23.60;100.00;100418.09;7738856;23;20409;-96
2023/08/05 10:20:52;;;;;;;3.38;1.63;;;;;;;23.83;100.00;100404.41;7715136;23;20024;-96
2023/08/05 10:24:01;;;;;;;3.80;1.60;;;;;;;23.66;100.00;100411.97;7742916;23;20019;-96
2023/08/05 10:27:10;;;;;;;2.97;1.80;;;;;;;23.42;100.00;100395.81;7745747;23;20643;-96
2023/08/05 10:30:16;;;;;;;2.53;1.83;;;;;;;23.22;100.00;100398.50;7720681;23;20449;-96
2023/08/05 10:33:21;;;;;;;1.75;1.52;;;;;;;23.30;100.00;100400.09;7750613;23;20123;-96
2023/08/05 10:36:43;;;;;;;2.53;1.85;;;;;;;23.40;100.00;100399.66;7758335;23;20024;-96
2023/08/05 10:40:00;;;;;;;3.25;1.50;;;;;;;23.34;100.00;100390.75;7765049;23;20319;-97
2023/08/05 10:43:32;;;;;;;4.93;2.00;;;;;;;23.27;100.00;100387.31;7776312;23;20319;-97
2023/08/05 10:46:50;;;;;;;4.90;1.90;;;;;;;23.29;100.00;100382.66;7748835;23;20023;-96
2023/08/05 10:49:58;;;;;;;3.00;1.48;;;;;;;23.57;100.00;100381.53;7740370;23;20070;-96
2023/08/05 10:53:07;;;;;;;1.87;1.63;;;;;;;23.90;100.00;100372.63;7753251;23;20016;-96
2023/08/05 10:56:12;;;;;;;3.67;1.50;;;;;;;23.89;100.00;100365.75;7741681;23;20016;-96
2023/08/05 10:59:17;;;;;;;1.63;1.48;;;;;;;23.65;100.00;100365.41;7725103;23;20100;-97
2023/08/05 11:02:24;;;;;;;2.28;1.42;;;;;;;23.43;100.00;100360.44;7752292;23;20016;-96
2023/08/05 11:05:40;;;;;;;1.55;1.45;;;;;;;23.18;100.00;100352.44;7752884;23;20020;-96
2023/08/05 11:09:02;;;;;;;2.17;1.75;;;;;;;22.72;100.00;100352.50;7746015;23;20020;-97
2023/08/05 11:12:14;;;;;;;2.40;1.45;;;;;;;22.25;100.00;100351.69;7768585;23;20032;-96
2023/08/05 11:15:17;;;;;;;1.30;1.20;;;;;;;22.19;100.00;100355.94;7772007;23;20035;-96
2023/08/05 11:18:25;;;;;;;3.17;1.60;;;;;;;22.40;100.00;100344.41;7739503;23;20024;-96
2023/08/05 11:21:27;;;;;;;3.38;1.80;;;;;;;22.68;100.00;100336.28;7737909;23;20107;-96
2023/08/05 11:24:30;;;;;;;3.60;1.73;;;;;;;22.86;100.00;100337.47;7737952;23;20020;-96
2023/08/05 11:27:36;;;;;;;2.33;1.38;;;;;;;22.94;100.00;100340.66;7739400;23;20016;-96
2023/08/05 11:30:41;;;;;;;1.70;1.60;;;;;;;23.06;100.00;100332.16;7740411;23;20058;-96
2023/08/05 11:33:48;;;;;;;5.07;1.83;;;;;;;23.31;100.00;100330.44;7740755;23;20924;-96
2023/08/05 11:36:56;;;;;;;2.53;1.75;;;;;;;23.59;100.00;100332.72;7742046;23;20020;-96
2023/08/05 11:40:00;;;;;;;2.60;1.65;;;;;;;23.77;100.00;100325.94;7743530;23;20351;-96
2023/08/05 11:43:05;;;;;;;2.00;1.70;;;;;;;23.92;100.00;100320.34;7740728;23;20020;-96
2023/08/05 11:46:23;;;;;;;3.13;1.85;;;;;;;24.39;100.00;100315.50;7741978;23;20091;-96
2023/08/05 11:49:25;;;;;;;2.92;1.77;;;;;;;24.89;100.00;100302.22;7741846;22;20009;-96
2023/08/05 11:52:27;;;;;;;2.47;1.42;;;;;;;25.03;100.00;100300.22;7742627;23;20020;-96
2023/08/05 11:55:52;;;;;;;;;;;;;;;;;;;;;
2023/08/05 11:59:04;;;;;;;3.28;1.50;;;;;;;24.74;100.00;100291.19;7769413;23;20592;-96
2023/08/05 12:02:18;;;;;;;1.77;1.67;;;;;;;25.29;100.00;100286.69;7768753;23;20016;-97
2023/08/05 12:05:36;;;;;;;2.65;1.67;;;;;;;25.89;100.00;100285.06;7763841;22;20450;-96
2023/08/05 12:08:49;;;;;;;2.40;1.67;;;;;;;25.90;100.00;100281.34;7766143;22;20016;-96
2023/08/05 12:11:57;;;;;;;2.58;1.60;;;;;;;25.93;100.00;100278.25;7739267;23;20031;-96
2023/08/05 12:15:27;;;;;;;2.22;1.70;;;;;;;25.84;100.00;100277.75;7766483;23;20065;-96
2023/08/05 12:18:49;;;;;;;2.00;1.70;;;;;;;25.77;100.00;100274.38;7742038;23;20020;-96
2023/08/05 12:22:07;;;;;;;2.42;1.60;;;;;;;25.98;100.00;100263.25;7743771;23;20047;-96
2023/08/05 12:25:16;;;;;;;1.95;1.73;;;;;;;26.53;100.00;100263.97;7724683;23;20587;-96
2023/08/05 12:28:19;;;;;;;1.95;1.58;;;;;;;26.96;100.00;100266.19;7720893;23;20346;-96
2023/08/05 12:31:22;;;;;;;2.03;1.80;;;;;;;26.59;100.00;100252.44;7747860;23;20070;-96
2023/08/05 12:34:25;;;;;;;2.75;2.00;;;;;;;26.54;100.00;100250.47;7741662;23;20020;-96
2023/08/05 12:37:36;;;;;;;3.47;1.65;;;;;;;26.97;100.00;100246.53;7746551;23;20093;-96
2023/08/05 12:40:38;;;;;;;2.10;1.70;;;;;;;26.87;100.00;100243.69;7748285;23;20024;-96
2023/08/05 12:43:41;;;;;;;1.75;1.65;;;;;;;26.71;100.00;100239.09;7753999;22;20798;-96
2023/08/05 12:46:46;;;;;;;1.90;1.50;;;;;;;26.89;100.00;100232.84;7769237;22;20012;-96
2023/08/05 12:49:49;;;;;;;2.75;1.80;;;;;;;26.63;100.00;100235.81;7748338;23;20020;-96
2023/08/05 12:52:52;;;;;;;2.33;1.70;;;;;;;26.68;100.00;100227.09;7748448;23;20023;-96
2023/08/05 12:56:00;;;;;;;2.97;1.73;;;;;;;26.40;100.00;100227.84;7729277;23;20346;-96
2023/08/05 12:59:06;;;;;;;2.17;2.08;;;;;;;25.96;100.00;100222.91;7752780;23;20446;-96
2023/08/05 13:02:09;;;;;;;2.00;1.80;;;;;;;25.51;100.00;100217.25;7754811;23;20091;-96
2023/08/05 13:05:14;;;;;;;2.35;2.15;;;;;;;25.59;100.00;100206.34;7746714;23;20028;-96
2023/08/05 13:08:17;;;;;;;1.98;1.83;;;;;;;25.87;100.00;100210.22;7745287;23;20020;-96
2023/08/05 13:11:26;;;;;;;3.55;1.90;;;;;;;26.33;100.00;100198.75;7742431;23;20390;-96
2023/08/05 13:14:31;;;;;;;2.75;1.80;;;;;;;26.58;100.00;100200.34;7720264;23;20028;-96
2023/08/05 13:17:34;;;;;;;4.97;1.70;;;;;;;26.67;100.00;100196.28;7744282;23;20008;-96
2023/08/05 13:20:36;;;;;;;4.43;1.77;;;;;;;26.70;100.00;100187.84;7748585;23;20020;-96
2023/08/05 13:23:38;;;;;;;1.90;1.80;;;;;;;26.83;100.00;100184.09;7752226;23;20047;-96
2023/08/05 13:26:41;;;;;;;1.52;1.42;;;;;;;26.25;100.00;100177.88;7747859;23;20020;-96
2023/08/05 13:29:44;;;;;;;1.88;1.67;;;;;;;26.03;100.00;100168.91;7745856;23;20549;-96
2023/08/05 13:32:46;;;;;;;1.98;1.73;;;;;;;26.53;100.00;100168.41;7742631;23;20031;-96
2023/08/05 13:35:52;;;;;;;1.85;1.73;;;;;;;26.30;100.00;100161.28;7730970;23;20020;-96
2023/08/05 13:38:55;;;;;;;2.58;1.60;;;;;;;25.94;100.00;100148.06;7756743;22;20034;-96
2023/08/05 13:42:12;;;;;;;3.40;2.10;;;;;;;25.64;100.00;100147.31;7767882;22;20012;-96
2023/08/05 13:45:22;;;;;;;3.00;1.83;;;;;;;25.48;100.00;100148.81;7790976;22;20008;-96
2023/08/05 13:48:25;;;;;;;2.30;2.10;;;;;;;25.57;100.00;100140.28;7813718;22;20018;-95
2023/08/05 13:51:32;;;;;;;1.77;1.67;;;;;;;25.63;100.00;100132.47;7795388;22;20345;-96
2023/08/05 13:54:42;;;;;;;2.67;2.13;;;;;;;25.33;100.00;100126.22;7806642;22;20018;-96
2023/08/05 13:57:48;;;;;;;2.83;2.00;;;;;;;25.14;100.00;100117.53;7808495;22;20320;-96
2023/08/05 14:00:58;;;;;;;2.13;2.00;;;;;;;25.85;100.00;100111.47;7754329;22;20495;-95
2023/08/05 14:04:00;;;;;;;2.85;2.20;;;;;;;25.89;100.00;100110.81;7770575;22;20023;-96
2023/08/05 14:07:05;;;;;;;2.67;2.00;;;;;;;25.99;100.00;100103.06;7777009;22;20012;-96
2023/08/05 14:10:08;;;;;;;2.15;1.90;;;;;;;25.60;100.00;100087.88;7810191;22;20039;-96
2023/08/05 14:13:10;;;;;;;1.77;1.67;;;;;;;26.01;100.00;100084.25;7754273;22;20027;-95